GMT,Max TemperatureF,Mean TemperatureF,Min TemperatureF,Max Dew PointF,MeanDew PointF,Min DewpointF,Max Humidity, Mean Humidity, Min Humidity, Max Sea Level PressureIn, Mean Sea Level PressureIn, Min Sea Level PressureIn, Max VisibilityMiles, Mean VisibilityMiles, Min VisibilityMiles, Max Wind SpeedMPH, Mean Wind SpeedMPH, Max Gust SpeedMPH,PrecipitationIn, CloudCover, Events, WindDirDegrees
2012-10-1,58,56,53,55,52,47,100,87,67,29.77,29.72,29.68,6,6,6,22,14,,0.00,2,Rain,222
2012-10-2,57,53,49,54,51,47,100,87,70,29.68,29.57,29.44,6,6,3,29,17,,0.04,4,Rain,190
2012-10-3,55,50,46,48,47,43,94,81,66,29.56,29.52,29.47,6,6,3,29,25,37,0.28,4,Rain,250
2012-10-4,55,49,43,50,47,44,100,86,72,29.74,29.69,29.62,6,6,6,16,6,,0.03,2,Fog-Rain,218
2012-10-5,54,51,48,49,47,43,91,79,61,29.74,29.66,29.53,6,6,6,25,18,,0.12,4,Rain,271
2012-10-6,56,50,43,50,48,44,88,79,68,30.04,29.93,29.80,6,6,6,12,10,,0.00,2,,295
2012-10-7,52,45,38,46,42,37,100,83,64,30.21,30.18,30.12,6,6,6,7,4,,0.00,1,Fog,26
2012-10-8,59,50,42,52,47,40,100,80,57,30.04,29.97,29.92,6,6,6,9,7,,0.00,1,,74
2012-10-9,56,46,36,45,42,35,100,78,46,30.06,30.05,30.04,6,6,6,9,6,,0.00,4,Fog,107
2012-10-10,53,48,42,50,46,40,94,86,72,29.98,29.93,29.86,6,6,3,17,10,,0.00,5,,134
2012-10-11,55,52,49,54,50,44,100,93,70,29.68,29.56,29.47,6,4,2,16,12,,0.24,5,Rain,119
2012-10-12,54,52,50,54,43,39,99,71,57,29.65,29.62,29.53,6,6,6,25,21,32,0.16,3,Rain,276
2012-10-13,54,48,41,48,43,39,100,84,57,29.65,29.64,29.62,6,6,6,10,5,,0.01,2,Rain,169
2012-10-14,53,44,34,48,42,36,100,85,63,29.65,29.62,29.59,6,6,2,12,6,,0.00,2,Fog-Rain,7
2012-10-15,51,48,44,48,45,43,100,90,65,29.56,29.49,29.42,6,6,4,12,7,,0.12,3,Rain,183
2012-10-16,51,50,46,48,43,39,94,78,58,29.53,29.37,29.15,6,6,3,38,24,50,0.02,4,Rain,261
2012-10-17,58,49,40,52,47,42,100,81,58,29.33,29.28,29.21,6,6,4,21,14,,0.08,2,Rain,154
2012-10-18,59,53,47,54,50,47,100,86,67,29.59,29.46,29.36,6,6,6,20,15,,0.01,1,,154
2012-10-19,58,52,46,52,49,46,100,86,64,29.77,29.74,29.68,6,6,6,12,8,,0.00,1,,143
2012-10-20,56,51,46,54,49,45,100,89,73,30.04,29.96,29.86,6,6,6,14,8,,0.00,1,,184
2012-10-21,58,48,39,52,46,41,100,87,65,30.18,30.14,30.09,6,6,3,9,6,,0.00,1,Fog,87
2012-10-22,55,48,42,52,50,42,94,89,77,30.24,30.20,30.18,6,6,6,12,9,,0.00,6,Rain,72
2012-10-23,59,56,53,55,54,51,94,88,77,30.30,30.30,30.27,6,6,6,10,6,,0.00,6,,74
2012-10-24,57,55,53,54,51,48,94,85,74,30.24,30.19,30.15,6,6,6,20,10,,0.00,5,,80
2012-10-25,52,49,46,47,44,39,87,78,65,30.12,30.11,30.09,6,6,6,17,12,,0.00,6,,81
2012-10-26,44,40,36,36,31,23,87,66,48,30.12,30.06,30.04,6,6,6,15,9,,0.00,2,,31
2012-10-27,46,40,33,39,33,26,81,65,46,30.21,30.18,30.12,6,6,6,18,12,,0.04,1,Rain,340
2012-10-28,50,48,45,50,47,42,100,91,82,29.89,29.76,29.65,6,5,4,29,23,,0.35,5,Rain,257
2012-10-29,52,49,45,50,46,36,100,88,62,29.77,29.73,29.71,6,6,6,12,6,,0.00,4,,342
2012-10-30,50,48,46,46,45,41,93,84,68,29.65,29.53,29.39,6,6,4,25,18,,0.02,4,Rain,261
2012-10-31,50,46,42,46,44,41,100,90,76,29.09,28.93,28.85,6,6,4,23,17,,0.16,4,Rain,186